createdAt,value
2022-11-12T00:01:07.462Z,11.20
2022-11-12T00:03:34.190Z,11.20
2022-11-12T00:06:00.896Z,11.20
2022-11-12T00:08:28.019Z,11.20
2022-11-12T00:10:54.992Z,11.20
2022-11-12T00:13:21.777Z,11.20
2022-11-12T00:15:48.568Z,11.30
2022-11-12T00:18:15.276Z,11.30
2022-11-12T00:20:44.463Z,11.30
2022-11-12T00:23:13.429Z,11.30
2022-11-12T00:25:42.589Z,11.40
2022-11-12T00:28:12.015Z,11.40
2022-11-12T00:30:41.398Z,11.40
2022-11-12T00:33:08.215Z,11.40
2022-11-12T00:35:34.931Z,11.40
2022-11-12T00:38:04.218Z,11.30
2022-11-12T00:40:33.522Z,11.30
2022-11-12T00:43:00.283Z,11.30
2022-11-12T00:45:26.972Z,11.30
2022-11-12T00:47:57.016Z,11.30
2022-11-12T00:50:23.836Z,11.30
2022-11-12T00:52:52.887Z,11.30
2022-11-12T00:55:19.595Z,11.40
2022-11-12T00:57:46.307Z,11.40
2022-11-12T01:00:16.443Z,11.40
2022-11-12T01:02:47.692Z,11.50
2022-11-12T01:05:20.004Z,11.50
2022-11-12T01:07:49.375Z,11.50
2022-11-12T01:10:19.982Z,11.50
2022-11-12T01:12:46.678Z,11.40
2022-11-12T01:15:13.401Z,11.40
2022-11-12T01:17:42.354Z,11.40
2022-11-12T01:20:09.180Z,11.40
2022-11-12T01:22:35.902Z,11.40
2022-11-12T01:25:04.967Z,11.30
2022-11-12T01:27:31.701Z,11.40
2022-11-12T01:29:59.508Z,11.40
2022-11-12T01:32:30.913Z,11.40
2022-11-12T01:34:57.702Z,11.30
2022-11-12T01:37:24.400Z,11.30
2022-11-12T01:39:51.135Z,11.40
2022-11-12T01:42:17.887Z,11.30
2022-11-12T01:44:45.185Z,11.30
2022-11-12T01:47:17.153Z,11.30
2022-11-12T01:50:36.084Z,11.30
2022-11-12T01:53:05.725Z,11.30
2022-11-12T01:55:34.601Z,11.40
2022-11-12T01:58:19.269Z,11.40
2022-11-12T02:00:48.500Z,11.40
2022-11-12T02:03:19.999Z,11.40
2022-11-12T02:05:51.682Z,11.30
2022-11-12T02:08:18.451Z,11.30
2022-11-12T02:10:45.214Z,11.30
2022-11-12T02:13:30.497Z,11.30
2022-11-12T02:15:59.703Z,11.30
2022-11-12T02:18:26.856Z,11.30
2022-11-12T02:20:55.786Z,11.30
2022-11-12T02:23:22.574Z,11.20
2022-11-12T02:25:49.289Z,11.20
2022-11-12T02:28:16.002Z,11.20
2022-11-12T02:30:44.801Z,11.20
2022-11-12T02:33:11.512Z,11.20
2022-11-12T02:35:38.310Z,11.10
2022-11-12T02:38:07.416Z,11.20
2022-11-12T02:40:34.271Z,11.20
2022-11-12T02:43:03.078Z,11.20
2022-11-12T02:45:34.557Z,11.20
2022-11-12T02:48:03.918Z,11.20
2022-11-12T02:50:30.676Z,11.20
2022-11-12T02:52:59.671Z,11.20
2022-11-12T02:55:28.547Z,11.20
2022-11-12T02:57:59.713Z,11.20
2022-11-12T03:00:28.582Z,11.20
2022-11-12T03:03:02.701Z,11.20
2022-11-12T03:05:33.325Z,11.20
2022-11-12T03:08:05.173Z,11.10
2022-11-12T03:10:32.049Z,11.10
2022-11-12T03:13:01.423Z,11.10
2022-11-12T03:15:28.388Z,11.00
2022-11-12T03:17:55.157Z,11.00
2022-11-12T03:20:21.844Z,11.10
2022-11-12T03:23:02.650Z,11.00
2022-11-12T03:25:29.408Z,11.10
2022-11-12T03:27:59.549Z,11.00
2022-11-12T03:30:30.034Z,11.10
2022-11-12T03:32:56.728Z,11.00
2022-11-12T03:35:24.044Z,11.00
2022-11-12T03:37:52.792Z,11.00
2022-11-12T03:40:20.735Z,11.10
2022-11-12T03:42:52.667Z,11.10
2022-11-12T03:45:24.587Z,11.10
2022-11-12T03:47:53.071Z,11.00
2022-11-12T03:50:20.696Z,11.10
2022-11-12T03:52:51.875Z,11.00
2022-11-12T03:55:21.552Z,11.00
2022-11-12T03:57:48.917Z,11.00
2022-11-12T04:00:15.840Z,11.00
2022-11-12T04:02:42.569Z,11.00
2022-11-12T04:05:28.549Z,11.00
2022-11-12T04:08:23.781Z,11.10
2022-11-12T04:10:53.072Z,11.10
2022-11-12T04:13:28.922Z,11.10
2022-11-12T04:16:17.156Z,11.20
2022-11-12T04:19:02.842Z,11.10
2022-11-12T04:21:52.049Z,11.10
2022-11-12T04:24:42.054Z,11.10
2022-11-12T04:27:19.528Z,11.00
2022-11-12T04:30:05.181Z,11.00
2022-11-12T04:32:35.800Z,11.00
2022-11-12T04:35:02.701Z,11.10
2022-11-12T04:37:44.219Z,11.00
2022-11-12T04:40:40.411Z,11.00
2022-11-12T04:43:26.982Z,11.00
2022-11-12T04:45:54.046Z,11.00
2022-11-12T04:48:21.358Z,11.00
2022-11-12T04:50:50.191Z,11.00
2022-11-12T04:53:17.080Z,11.10
2022-11-12T04:55:43.803Z,11.10
2022-11-12T04:58:10.576Z,11.10
2022-11-12T05:00:39.497Z,11.00
2022-11-12T05:03:08.662Z,11.00
2022-11-12T05:05:37.859Z,11.00
2022-11-12T05:08:04.657Z,11.00
2022-11-12T05:10:31.505Z,10.90
2022-11-12T05:12:58.244Z,10.90
2022-11-12T05:15:25.118Z,10.90
2022-11-12T05:17:51.947Z,10.80
2022-11-12T05:20:18.689Z,10.80
2022-11-12T05:22:59.161Z,10.80
2022-11-12T05:25:32.069Z,10.80
2022-11-12T05:28:01.229Z,10.80
2022-11-12T05:30:27.927Z,10.70
2022-11-12T05:32:54.734Z,10.60
2022-11-12T05:35:21.472Z,10.60
2022-11-12T05:37:48.178Z,10.50
2022-11-12T05:40:17.323Z,10.50
2022-11-12T05:42:47.574Z,10.50
2022-11-12T05:45:14.364Z,10.50
2022-11-12T05:47:43.290Z,10.40
2022-11-12T05:50:10.126Z,10.40
2022-11-12T05:52:36.920Z,10.50
2022-11-12T05:55:03.706Z,10.50
2022-11-12T05:57:30.474Z,10.50
2022-11-12T05:59:57.178Z,10.40
2022-11-12T06:02:23.979Z,10.50
2022-11-12T06:04:50.734Z,10.40
2022-11-12T06:07:17.538Z,10.30
2022-11-12T06:09:44.315Z,10.40
2022-11-12T06:12:11.024Z,10.40
2022-11-12T06:14:40.238Z,10.30
2022-11-12T06:17:07.044Z,10.30
2022-11-12T06:19:35.945Z,10.20
2022-11-12T06:22:02.759Z,10.20
2022-11-12T06:24:35.049Z,10.20
2022-11-12T06:27:02.414Z,10.20
2022-11-12T06:29:30.244Z,10.20
2022-11-12T06:31:59.194Z,10.10
2022-11-12T06:34:25.914Z,10.10
2022-11-12T06:36:52.712Z,10.10
2022-11-12T06:39:19.938Z,10.00
2022-11-12T06:41:46.691Z,10.00
2022-11-12T06:44:17.753Z,10.00
2022-11-12T06:46:50.440Z,10.00
2022-11-12T06:49:19.618Z,10.00
2022-11-12T06:51:50.271Z,10.00
2022-11-12T06:54:19.532Z,10.00
2022-11-12T06:56:46.255Z,10.10
2022-11-12T06:59:13.041Z,9.90
2022-11-12T07:01:39.867Z,9.90
2022-11-12T07:04:06.598Z,9.90
2022-11-12T07:06:39.250Z,10.00
2022-11-12T07:09:06.173Z,9.90
2022-11-12T07:11:35.395Z,9.90
2022-11-12T07:14:02.179Z,9.90
2022-11-12T07:16:31.116Z,9.90
2022-11-12T07:19:00.124Z,9.90
2022-11-12T07:21:26.895Z,9.90
2022-11-12T07:23:53.900Z,9.90
2022-11-12T07:26:27.607Z,10.00
2022-11-12T07:28:59.082Z,10.00
2022-11-12T07:31:28.244Z,10.00
2022-11-12T07:33:57.459Z,10.00
2022-11-12T07:36:24.183Z,10.00
2022-11-12T07:38:53.954Z,10.00
2022-11-12T07:41:24.348Z,10.00
2022-11-12T07:43:54.355Z,9.90
2022-11-12T07:46:25.085Z,10.00
2022-11-12T07:48:54.715Z,9.80
2022-11-12T07:51:29.037Z,9.90
2022-11-12T07:53:59.464Z,10.00
2022-11-12T07:56:31.169Z,10.00
2022-11-12T07:58:57.941Z,10.00
2022-11-12T08:01:31.477Z,10.00
2022-11-12T08:03:59.136Z,10.00
2022-11-12T08:06:28.930Z,10.00
2022-11-12T08:08:55.992Z,10.00
2022-11-12T08:11:22.785Z,10.00
2022-11-12T08:13:49.742Z,10.00
2022-11-12T08:16:16.658Z,9.90
2022-11-12T08:18:43.615Z,9.90
2022-11-12T08:21:12.157Z,9.90
2022-11-12T08:23:41.947Z,9.90
2022-11-12T08:26:14.946Z,9.80
2022-11-12T08:28:41.785Z,10.00
2022-11-12T08:31:15.282Z,9.90
2022-11-12T08:33:44.243Z,10.00
2022-11-12T08:36:15.187Z,10.00
2022-11-12T08:38:42.070Z,10.00
2022-11-12T08:41:12.493Z,10.00
2022-11-12T08:43:41.845Z,10.00
2022-11-12T08:46:10.868Z,10.00
2022-11-12T08:48:39.846Z,10.10
2022-11-12T08:51:06.969Z,10.10
2022-11-12T08:53:33.825Z,10.00
2022-11-12T08:56:00.621Z,10.00
2022-11-12T08:58:27.698Z,10.00
2022-11-12T09:00:55.281Z,10.00
2022-11-12T09:03:25.634Z,9.90
2022-11-12T09:05:52.562Z,9.90
2022-11-12T09:08:22.075Z,10.00
2022-11-12T09:10:51.510Z,9.90
2022-11-12T09:13:18.643Z,9.90
2022-11-12T09:15:47.770Z,10.00
2022-11-12T09:18:18.181Z,10.00
2022-11-12T09:20:45.089Z,10.10
2022-11-12T09:23:13.892Z,10.00
2022-11-12T09:25:43.163Z,10.10
2022-11-12T09:28:16.741Z,10.10
2022-11-12T09:30:46.512Z,10.10
2022-11-12T09:33:17.643Z,10.10
2022-11-12T09:35:48.927Z,10.00
2022-11-12T09:38:15.830Z,10.00
2022-11-12T09:40:51.627Z,10.00
2022-11-12T09:43:23.662Z,10.00
2022-11-12T09:46:13.600Z,10.10
2022-11-12T09:48:43.701Z,10.00
2022-11-12T09:51:26.476Z,9.90
2022-11-12T09:53:57.083Z,9.90
2022-11-12T09:56:26.557Z,9.90
2022-11-12T09:58:53.587Z,9.90
2022-11-12T10:01:38.411Z,9.90
2022-11-12T10:04:41.696Z,9.90
2022-11-12T10:07:38.608Z,10.00
2022-11-12T10:10:15.554Z,9.90
2022-11-12T10:13:14.028Z,9.90
2022-11-12T10:16:07.930Z,10.00
2022-11-12T10:18:53.402Z,10.00
2022-11-12T10:21:42.281Z,10.10
2022-11-12T10:24:12.082Z,10.00
2022-11-12T10:26:42.100Z,10.00
2022-11-12T10:29:11.812Z,10.00
2022-11-12T10:31:40.796Z,10.00
2022-11-12T10:34:13.701Z,10.00
2022-11-12T10:36:46.648Z,10.10
2022-11-12T10:39:34.841Z,10.00
2022-11-12T10:42:12.251Z,10.00
2022-11-12T10:44:39.464Z,10.00
2022-11-12T10:47:42.914Z,10.10
2022-11-12T10:50:10.390Z,10.10
2022-11-12T10:52:37.214Z,10.20
2022-11-12T10:55:22.718Z,10.20
2022-11-12T10:58:07.976Z,10.20
2022-11-12T11:00:34.790Z,10.30
2022-11-12T11:03:03.677Z,10.20
2022-11-12T11:05:53.035Z,10.10
2022-11-12T11:08:38.050Z,10.20
2022-11-12T11:11:19.652Z,10.20
2022-11-12T11:13:49.197Z,10.20
2022-11-12T11:16:21.403Z,10.30
2022-11-12T11:19:08.530Z,10.30
2022-11-12T11:21:48.626Z,10.30
2022-11-12T11:24:21.499Z,10.20
2022-11-12T11:27:02.298Z,10.20
2022-11-12T11:29:31.985Z,10.20
2022-11-12T11:32:39.808Z,10.20
2022-11-12T11:35:26.407Z,10.20
2022-11-12T11:38:05.246Z,10.20
2022-11-12T11:40:50.822Z,10.20
2022-11-12T11:43:51.905Z,10.20
2022-11-12T11:46:36.080Z,10.20
2022-11-12T11:49:21.636Z,10.20
2022-11-12T11:52:07.312Z,10.20
2022-11-12T11:54:38.753Z,10.20
2022-11-12T11:57:22.303Z,10.20
2022-11-12T12:00:15.012Z,10.20
2022-11-12T12:03:02.935Z,10.10
2022-11-12T12:05:51.177Z,10.20
2022-11-12T12:08:42.950Z,10.10
2022-11-12T12:11:15.364Z,10.10
2022-11-12T12:14:04.062Z,10.10
2022-11-12T12:17:06.801Z,10.10
2022-11-12T12:19:59.080Z,10.10
2022-11-12T12:22:51.750Z,10.10
2022-11-12T12:25:29.414Z,10.20
2022-11-12T12:28:07.402Z,10.10
2022-11-12T12:30:36.286Z,10.10
2022-11-12T12:33:22.785Z,10.20
2022-11-12T12:36:06.943Z,10.20
2022-11-12T12:38:55.336Z,10.30
2022-11-12T12:41:30.174Z,10.30
2022-11-12T12:44:04.597Z,10.40
2022-11-12T12:46:32.498Z,10.30
2022-11-12T12:48:59.527Z,10.30
2022-11-12T12:51:29.191Z,10.40
2022-11-12T12:53:55.928Z,10.40
2022-11-12T12:56:22.619Z,10.40
2022-11-12T12:58:51.848Z,10.20
2022-11-12T13:01:21.759Z,10.30
2022-11-12T13:03:50.461Z,10.30
2022-11-12T13:06:23.511Z,10.40
2022-11-12T13:08:51.224Z,10.40
2022-11-12T13:12:06.253Z,10.40
2022-11-12T13:14:35.824Z,10.30
2022-11-12T13:17:02.553Z,10.30
2022-11-12T13:19:54.867Z,10.30
2022-11-12T13:22:24.551Z,10.40
2022-11-12T13:25:15.072Z,10.40
2022-11-12T13:27:45.088Z,10.40
2022-11-12T13:30:16.337Z,10.40
2022-11-12T13:32:51.333Z,10.50
2022-11-12T13:35:23.960Z,10.50
2022-11-12T13:38:09.329Z,10.50
2022-11-12T13:40:53.439Z,10.60
2022-11-12T13:43:33.596Z,10.60
2022-11-12T13:46:12.269Z,10.60
2022-11-12T13:48:49.266Z,10.50
2022-11-12T13:51:36.955Z,10.60
2022-11-12T13:54:23.273Z,10.60
2022-11-12T13:56:52.190Z,10.60
2022-11-12T13:59:20.586Z,10.50
2022-11-12T14:01:48.563Z,10.50
2022-11-12T14:04:18.905Z,10.50
2022-11-12T14:07:01.546Z,10.50
2022-11-12T14:09:54.456Z,10.40
2022-11-12T14:13:14.947Z,10.40
2022-11-12T14:15:56.945Z,10.50
2022-11-12T14:18:53.205Z,10.50
2022-11-12T14:21:19.929Z,10.50
2022-11-12T14:23:47.704Z,10.60
2022-11-12T14:26:14.941Z,10.60
2022-11-12T14:28:41.649Z,10.60
2022-11-12T14:31:15.452Z,10.60
2022-11-12T14:33:42.163Z,10.60
2022-11-12T14:36:15.737Z,10.60
2022-11-12T14:38:51.064Z,10.40
2022-11-12T14:41:24.488Z,10.40
2022-11-12T14:44:11.405Z,10.40
2022-11-12T14:46:41.734Z,10.40
2022-11-12T14:49:39.471Z,10.40
2022-11-12T14:52:19.125Z,10.40
2022-11-12T14:54:54.898Z,10.40
2022-11-12T14:57:28.290Z,10.40
2022-11-12T14:59:55.759Z,10.40
2022-11-12T15:02:41.662Z,10.40
2022-11-12T15:05:23.501Z,10.50
2022-11-12T15:07:58.034Z,10.50
2022-11-12T15:10:34.179Z,10.50
2022-11-12T15:13:15.729Z,10.50
2022-11-12T15:15:56.012Z,10.60
2022-11-12T15:18:27.265Z,10.60
2022-11-12T15:21:14.221Z,10.60
2022-11-12T15:24:15.716Z,10.60
2022-11-12T15:26:44.254Z,10.70
2022-11-12T15:29:10.913Z,10.70
2022-11-12T15:31:44.458Z,10.70
2022-11-12T15:34:38.438Z,10.70
2022-11-12T15:37:20.472Z,10.70
2022-11-12T15:39:49.356Z,10.60
2022-11-12T15:42:38.652Z,10.80
2022-11-12T15:45:12.405Z,10.70
2022-11-12T15:47:39.185Z,10.70
2022-11-12T15:50:18.499Z,10.60
2022-11-12T15:52:45.325Z,10.70
2022-11-12T15:55:14.461Z,10.80
2022-11-12T15:57:51.234Z,10.70
2022-11-12T16:00:19.622Z,10.70
2022-11-12T16:03:03.555Z,10.80
2022-11-12T16:05:30.331Z,10.80
2022-11-12T16:07:57.023Z,10.70
2022-11-12T16:10:26.090Z,10.80
2022-11-12T16:12:59.611Z,10.80
2022-11-12T16:15:26.525Z,10.80
2022-11-12T16:17:53.685Z,10.80
2022-11-12T16:20:24.861Z,10.70
2022-11-12T16:22:53.837Z,10.70
2022-11-12T16:25:22.797Z,10.80
2022-11-12T16:27:55.587Z,10.70
2022-11-12T16:30:27.480Z,10.70
2022-11-12T16:32:56.394Z,10.70
2022-11-12T16:35:23.248Z,10.60
2022-11-12T16:37:50.127Z,10.70
2022-11-12T16:40:27.724Z,10.70
2022-11-12T16:42:56.599Z,10.60
2022-11-12T16:45:24.908Z,10.60
2022-11-12T16:47:56.430Z,10.60
2022-11-12T16:50:26.717Z,10.70
2022-11-12T16:52:53.808Z,10.70
2022-11-12T16:55:25.173Z,10.70
2022-11-12T16:57:54.532Z,10.80
2022-11-12T17:00:21.360Z,10.80
2022-11-12T17:02:53.460Z,10.80
2022-11-12T17:05:24.392Z,10.80
2022-11-12T17:07:54.756Z,10.70
2022-11-12T17:10:24.261Z,10.80
2022-11-12T17:12:54.093Z,10.80
2022-11-12T17:15:23.031Z,10.80
2022-11-12T17:17:49.768Z,10.80
2022-11-12T17:20:17.328Z,10.80
2022-11-12T17:22:44.049Z,10.80
2022-11-12T17:25:10.754Z,10.80
2022-11-12T17:27:37.647Z,10.80
2022-11-12T17:30:04.821Z,10.80
2022-11-12T17:32:31.621Z,10.80
2022-11-12T17:34:58.336Z,10.80
2022-11-12T17:37:25.418Z,10.90
2022-11-12T17:39:52.194Z,10.80
2022-11-12T17:42:23.353Z,10.90
2022-11-12T17:44:50.097Z,10.90
2022-11-12T17:47:16.794Z,10.90
2022-11-12T17:49:43.610Z,10.80
2022-11-12T17:52:10.345Z,10.90
2022-11-12T17:54:37.155Z,10.90
2022-11-12T17:57:03.969Z,10.80
2022-11-12T17:59:30.742Z,10.80
2022-11-12T18:01:57.434Z,10.80
2022-11-12T18:04:25.108Z,10.90
2022-11-12T18:06:53.781Z,10.90
2022-11-12T18:09:20.636Z,10.90
2022-11-12T18:11:49.157Z,10.80
2022-11-12T18:14:16.007Z,10.80
2022-11-12T18:16:42.730Z,10.80
2022-11-12T18:19:12.548Z,10.90
2022-11-12T18:21:39.711Z,10.90
2022-11-12T18:24:09.680Z,10.90
2022-11-12T18:26:36.367Z,10.90
2022-11-12T18:29:05.525Z,10.90
2022-11-12T18:31:34.419Z,10.80
2022-11-12T18:34:03.298Z,10.80
2022-11-12T18:36:32.162Z,10.80
2022-11-12T18:39:00.991Z,10.80
2022-11-12T18:41:30.118Z,10.80
2022-11-12T18:43:56.859Z,10.80
2022-11-12T18:46:23.657Z,10.70
2022-11-12T18:48:50.445Z,10.70
2022-11-12T18:51:18.288Z,10.80
2022-11-12T18:53:45.728Z,10.80
2022-11-12T18:56:14.297Z,10.80
2022-11-12T18:58:41.462Z,10.80
2022-11-12T19:01:21.065Z,10.80
2022-11-12T19:03:48.260Z,10.80
2022-11-12T19:06:17.214Z,10.80
2022-11-12T19:08:44.102Z,10.80
2022-11-12T19:11:12.409Z,10.80
2022-11-12T19:13:39.511Z,10.80
2022-11-12T19:16:11.911Z,10.70
2022-11-12T19:18:39.418Z,10.80
2022-11-12T19:21:11.223Z,10.70
2022-11-12T19:23:38.570Z,10.80
2022-11-12T19:26:08.905Z,10.80
2022-11-12T19:28:40.767Z,10.70
2022-11-12T19:31:18.608Z,10.80
2022-11-12T19:33:45.386Z,10.80
2022-11-12T19:36:16.883Z,10.70
2022-11-12T19:38:43.758Z,10.60
2022-11-12T19:41:17.734Z,10.60
2022-11-12T19:43:45.710Z,10.60
2022-11-12T19:46:12.412Z,10.60
2022-11-12T19:48:39.208Z,10.60
2022-11-12T19:51:07.208Z,10.60
2022-11-12T19:53:41.010Z,10.60
2022-11-12T19:56:10.072Z,10.60
2022-11-12T19:58:36.780Z,10.60
2022-11-12T20:01:10.470Z,10.60
2022-11-12T20:03:39.942Z,10.60
2022-11-12T20:06:07.728Z,10.60
2022-11-12T20:08:34.569Z,10.50
2022-11-12T20:11:01.545Z,10.50
2022-11-12T20:13:28.485Z,10.50
2022-11-12T20:15:55.260Z,10.50
2022-11-12T20:18:22.028Z,10.50
2022-11-12T20:20:55.811Z,10.60
2022-11-12T20:23:23.635Z,10.60
2022-11-12T20:25:51.165Z,10.50
2022-11-12T20:28:18.260Z,10.50
2022-11-12T20:30:45.169Z,10.50
2022-11-12T20:33:13.326Z,10.40
2022-11-12T20:35:40.025Z,10.50
2022-11-12T20:38:06.833Z,10.40
2022-11-12T20:40:33.991Z,10.40
2022-11-12T20:43:00.694Z,10.40
2022-11-12T20:45:27.409Z,10.40
2022-11-12T20:47:56.811Z,10.40
2022-11-12T20:50:25.790Z,10.40
2022-11-12T20:52:52.533Z,10.50
2022-11-12T20:55:19.720Z,10.40
2022-11-12T20:57:46.465Z,10.40
2022-11-12T21:00:14.828Z,10.40
2022-11-12T21:02:48.265Z,10.40
2022-11-12T21:05:17.238Z,10.40
2022-11-12T21:07:43.943Z,10.40
2022-11-12T21:10:10.653Z,10.40
2022-11-12T21:12:39.920Z,10.40
2022-11-12T21:15:07.115Z,10.40
2022-11-12T21:17:33.940Z,10.40
2022-11-12T21:20:00.660Z,10.50
2022-11-12T21:22:29.880Z,10.40
2022-11-12T21:24:56.600Z,10.30
2022-11-12T21:27:25.791Z,10.40
2022-11-12T21:29:52.523Z,10.40
2022-11-12T21:32:19.232Z,10.40
2022-11-12T21:34:45.988Z,10.40
2022-11-12T21:37:12.800Z,10.40
2022-11-12T21:39:39.554Z,10.40
2022-11-12T21:42:08.788Z,10.40
2022-11-12T21:44:35.554Z,10.40
2022-11-12T21:47:07.072Z,10.30
2022-11-12T21:49:33.764Z,10.30
2022-11-12T21:52:00.576Z,10.30
2022-11-12T21:54:29.853Z,10.30
2022-11-12T21:56:56.628Z,10.30
2022-11-12T21:59:27.391Z,10.30
2022-11-12T22:01:56.340Z,10.30
2022-11-12T22:04:24.104Z,10.20
2022-11-12T22:06:53.443Z,10.20
2022-11-12T22:09:20.198Z,10.30
2022-11-12T22:11:49.408Z,10.30
2022-11-12T22:14:16.116Z,10.30
2022-11-12T22:16:45.292Z,10.30
2022-11-12T22:19:16.030Z,10.30
2022-11-12T22:21:42.835Z,10.30
2022-11-12T22:24:10.603Z,10.20
2022-11-12T22:26:39.941Z,10.30
2022-11-12T22:29:09.057Z,10.20
2022-11-12T22:31:35.838Z,10.20
2022-11-12T22:34:02.705Z,10.20
2022-11-12T22:36:30.833Z,10.20
2022-11-12T22:39:03.150Z,10.20
2022-11-12T22:41:33.043Z,10.20
2022-11-12T22:44:00.711Z,10.20
2022-11-12T22:46:31.097Z,10.20
2022-11-12T22:48:59.184Z,10.20
2022-11-12T22:51:27.227Z,10.20
2022-11-12T22:53:57.368Z,10.30
2022-11-12T22:56:24.377Z,10.20
2022-11-12T22:58:51.399Z,10.30
2022-11-12T23:01:23.187Z,10.30
2022-11-12T23:03:50.398Z,10.20
2022-11-12T23:06:19.729Z,10.20
2022-11-12T23:08:46.459Z,10.20
2022-11-12T23:11:15.152Z,10.20
2022-11-12T23:13:41.848Z,10.20
2022-11-12T23:16:09.882Z,10.30
2022-11-12T23:18:38.804Z,10.20
2022-11-12T23:21:07.234Z,10.20
2022-11-12T23:23:34.027Z,10.20
2022-11-12T23:26:04.926Z,10.20
2022-11-12T23:28:31.698Z,10.20
2022-11-12T23:31:00.851Z,10.10
2022-11-12T23:33:29.781Z,10.10
2022-11-12T23:36:07.336Z,10.10
2022-11-12T23:38:36.549Z,10.10
2022-11-12T23:41:03.502Z,10.10
2022-11-12T23:43:30.271Z,10.10
2022-11-12T23:45:57.026Z,10.10
2022-11-12T23:48:24.229Z,10.10
2022-11-12T23:51:01.690Z,10.10
2022-11-12T23:53:30.518Z,10.10
2022-11-12T23:56:02.530Z,10.10
2022-11-12T23:58:29.852Z,10.10
